Time;durP1;ratioP1;P1;durP2;ratioP2;P2;SDS_P1;SDS_P2;PMS_P1;PMS_P2;Temp;Humidity;BMP_temperature;BMP_pressure;BME280_temperature;BME280_humidity;BME280_pressure;Samples;Min_cycle;Max_cycle;Signal;HPM_P1;HPM_P2
2022/06/26 00:03:30;;;;;;;12.53;7.43;;;;;15.10;100772.00;;;;10382889;28;20223;-77
2022/06/26 00:08:32;;;;;;;13.47;8.03;;;;;15.00;100774.00;;;;10397544;28;20191;-76
2022/06/26 00:13:34;;;;;;;13.03;8.60;;;;;14.90;100767.00;;;;10413492;28;20206;-77
2022/06/26 00:18:36;;;;;;;14.67;8.37;;;;;14.80;100775.00;;;;10397570;28;20237;-76
2022/06/26 00:23:38;;;;;;;23.00;9.00;;;;;14.80;100771.00;;;;10397148;28;20215;-76
2022/06/26 00:28:40;;;;;;;17.20;9.47;;;;;14.70;100778.00;;;;10413037;28;20716;-77
2022/06/26 00:33:42;;;;;;;19.30;8.87;;;;;14.60;100779.00;;;;10453843;28;20182;-76
2022/06/26 00:38:44;;;;;;;16.90;8.53;;;;;14.50;100785.00;;;;10421234;28;20190;-77
2022/06/26 00:43:46;;;;;;;17.17;8.60;;;;;14.50;100793.00;;;;10420433;28;20557;-76
2022/06/26 00:48:48;;;;;;;15.07;7.67;;;;;14.50;100797.00;;;;10436838;28;20198;-76
2022/06/26 00:53:50;;;;;;;14.10;8.27;;;;;14.40;100787.00;;;;10406543;28;20182;-76
2022/06/26 00:58:52;;;;;;;17.00;7.93;;;;;14.40;100792.00;;;;10423916;28;20225;-76
2022/06/26 01:03:54;;;;;;;17.03;9.47;;;;;14.40;100796.00;;;;10409708;28;20219;-76
2022/06/26 01:08:59;;;;;;;18.17;9.77;;;;;14.40;100798.00;;;;10395012;28;20741;-76
2022/06/26 01:14:03;;;;;;;19.33;10.30;;;;;14.40;100793.00;;;;10378268;28;20183;-76
2022/06/26 01:19:07;;;;;;;21.70;10.17;;;;;14.40;100790.00;;;;10378489;28;20193;-76
2022/06/26 01:24:09;;;;;;;28.83;12.63;;;;;14.50;100784.00;;;;10377997;28;20214;-76
2022/06/26 01:29:11;;;;;;;24.50;12.03;;;;;14.50;100785.00;;;;10450832;28;20202;-77
2022/06/26 01:34:13;;;;;;;29.33;13.67;;;;;14.50;100787.00;;;;10394134;28;20195;-76
2022/06/26 01:39:19;;;;;;;24.47;13.20;;;;;14.40;100797.00;;;;10410464;28;20183;-76
2022/06/26 01:44:21;;;;;;;23.63;12.40;;;;;14.30;100792.00;;;;10413842;28;20304;-76
2022/06/26 01:49:25;;;;;;;28.23;12.23;;;;;14.10;100805.00;;;;10402014;28;20194;-76
2022/06/26 01:54:28;;;;;;;28.43;12.70;;;;;14.00;100797.00;;;;10385488;28;20869;-76
2022/06/26 01:59:31;;;;;;;23.40;13.03;;;;;13.90;100796.00;;;;10418211;28;20292;-76
2022/06/26 02:04:33;;;;;;;28.67;14.13;;;;;13.80;100800.00;;;;10408249;28;20230;-76
2022/06/26 02:14:58;;;;;;;27.80;14.40;;;;;13.70;100801.00;;;;10417686;28;20274;-76
2022/06/26 02:19:59;;;;;;;29.60;12.73;;;;;13.70;100813.00;;;;10417045;28;20199;-76
2022/06/26 02:25:03;;;;;;;28.20;13.47;;;;;13.70;100813.00;;;;10417007;28;20211;-76
2022/06/26 02:30:06;;;;;;;25.93;13.30;;;;;13.60;100798.00;;;;10431093;28;20554;-77
2022/06/26 02:35:08;;;;;;;30.50;13.33;;;;;13.60;100791.00;;;;10412223;28;20187;-76
2022/06/26 02:40:11;;;;;;;32.00;14.10;;;;;13.50;100791.00;;;;10400538;28;20666;-76
2022/06/26 02:45:13;;;;;;;26.30;12.33;;;;;13.50;100809.00;;;;10383731;28;20608;-76
2022/06/26 02:50:16;;;;;;;27.53;12.53;;;;;13.50;100813.00;;;;10400171;28;20557;-76
2022/06/26 02:55:18;;;;;;;29.83;12.80;;;;;13.50;100815.00;;;;10383218;28;20187;-76
2022/06/26 03:00:20;;;;;;;20.63;10.83;;;;;13.40;100818.00;;;;10434485;28;20224;-76
2022/06/26 03:05:22;;;;;;;24.37;10.90;;;;;13.40;100807.00;;;;10415563;28;20210;-76
2022/06/26 03:10:24;;;;;;;23.93;9.77;;;;;13.40;100797.00;;;;10415806;28;20261;-76
2022/06/26 03:15:26;;;;;;;19.13;8.83;;;;;13.40;100802.00;;;;10382922;28;20241;-76
2022/06/26 03:20:31;;;;;;;22.13;8.53;;;;;13.40;100801.00;;;;10414976;28;20191;-76
2022/06/26 03:25:33;;;;;;;19.13;9.23;;;;;13.40;100793.00;;;;10393824;28;20209;-76
2022/06/26 03:30:35;;;;;;;17.90;9.03;;;;;13.40;100815.00;;;;10423542;28;20198;-77
2022/06/26 03:35:39;;;;;;;18.07;8.77;;;;;13.50;100827.00;;;;10398907;28;20223;-76
2022/06/26 03:40:41;;;;;;;16.17;8.03;;;;;13.60;100836.00;;;;10414630;28;20542;-76
2022/06/26 03:45:45;;;;;;;15.17;9.20;;;;;13.60;100823.00;;;;10398105;28;20261;-77
2022/06/26 03:50:47;;;;;;;19.20;8.83;;;;;13.70;100821.00;;;;10414142;28;20257;-76
2022/06/26 03:55:51;;;;;;;18.33;8.63;;;;;13.70;100838.00;;;;10397401;28;20639;-76
2022/06/26 04:00:57;;;;;;;12.93;8.33;;;;;13.70;100832.00;;;;10384988;28;20277;-76
2022/06/26 04:05:59;;;;;;;13.53;8.67;;;;;13.60;100827.00;;;;10436999;28;20264;-76
2022/06/26 04:11:01;;;;;;;18.03;8.13;;;;;13.60;100843.00;;;;10459276;28;20213;-76
2022/06/26 04:16:07;;;;;;;12.07;7.20;;;;;13.50;100851.00;;;;10469581;28;20222;-77
2022/06/26 04:21:13;;;;;;;12.27;8.33;;;;;13.60;100866.00;;;;10437935;28;20244;-77
2022/06/26 04:26:15;;;;;;;17.07;8.20;;;;;13.70;100870.00;;;;10397565;28;20215;-77
2022/06/26 04:31:18;;;;;;;13.77;8.20;;;;;13.90;100863.00;;;;10379853;28;20206;-76
2022/06/26 04:36:25;;;;;;;18.57;8.90;;;;;14.10;100865.00;;;;10379791;28;20218;-77
2022/06/26 04:41:34;;;;;;;15.23;8.33;;;;;14.30;100876.00;;;;10396015;28;20187;-76
2022/06/26 04:46:39;;;;;;;15.33;7.83;;;;;14.70;100866.00;;;;10379407;28;20206;-77
2022/06/26 04:51:41;;;;;;;13.83;8.27;;;;;15.30;100866.00;;;;10379293;28;20280;-76
2022/06/26 04:56:58;;;;;;;13.97;7.80;;;;;15.70;100870.00;;;;10397081;28;20580;-77
2022/06/26 05:02:01;;;;;;;13.10;7.30;;;;;15.60;100867.00;;;;10433507;28;20293;-77
2022/06/26 05:07:22;;;;;;;11.20;6.83;;;;;15.70;100897.00;;;;10422178;28;20198;-77
2022/06/26 05:12:25;;;;;;;12.47;6.67;;;;;15.90;100900.00;;;;10436148;28;20216;-76
2022/06/26 05:17:46;;;;;;;12.00;5.97;;;;;16.00;100921.00;;;;10422426;28;20213;-76
2022/06/26 05:22:51;;;;;;;8.33;6.17;;;;;16.00;100909.00;;;;10479775;28;20282;-76
2022/06/26 05:27:54;;;;;;;13.27;7.40;;;;;16.00;100909.00;;;;10484856;28;20602;-76
2022/06/26 05:32:57;;;;;;;10.93;5.90;;;;;15.70;100904.00;;;;10484963;28;20193;-77
2022/06/26 05:38:00;;;;;;;10.93;6.20;;;;;15.60;100911.00;;;;10501453;28;20189;-77
2022/06/26 05:43:03;;;;;;;8.63;6.03;;;;;15.90;100896.00;;;;10485027;28;20570;-77
2022/06/26 05:48:06;;;;;;;12.32;6.30;;;;;16.20;100916.00;;;;10501621;28;20212;-76
2022/06/26 05:53:39;;;;;;;12.80;6.60;;;;;16.50;100930.00;;;;10484773;28;20335;-77
2022/06/26 05:59:04;;;;;;;11.00;6.20;;;;;16.40;100940.00;;;;10469362;28;20630;-76
2022/06/26 06:04:45;;;;;;;10.20;5.93;;;;;16.50;100978.00;;;;10499799;28;20208;-76
2022/06/26 06:09:53;;;;;;;12.80;5.70;;;;;16.80;100986.00;;;;10505843;28;20215;-76
2022/06/26 06:14:55;;;;;;;10.15;5.38;;;;;16.80;100979.00;;;;10522639;28;20192;-77
2022/06/26 06:19:58;;;;;;;9.73;5.43;;;;;16.90;100976.00;;;;10506674;28;20280;-77
2022/06/26 06:25:00;;;;;;;7.78;5.05;;;;;17.00;100991.00;;;;10526012;28;20200;-77
2022/06/26 06:30:13;;;;;;;12.25;4.85;;;;;17.20;100998.00;;;;10496541;28;20188;-77
2022/06/26 06:35:16;;;;;;;7.93;5.45;;;;;17.40;100985.00;;;;10525324;28;20694;-76
2022/06/26 06:40:19;;;;;;;8.00;5.63;;;;;17.50;100996.00;;;;10477670;28;20204;-76
2022/06/26 06:45:21;;;;;;;9.90;5.45;;;;;17.70;100998.00;;;;10480834;28;20292;-76
2022/06/26 06:50:31;;;;;;;9.60;5.30;;;;;17.50;101002.00;;;;10460763;28;20217;-76
2022/06/26 06:55:34;;;;;;;10.07;5.47;;;;;17.40;101008.00;;;;10484082;28;20267;-76
2022/06/26 07:00:36;;;;;;;9.07;5.65;;;;;17.40;101014.00;;;;10477048;28;20229;-76
2022/06/26 07:05:38;;;;;;;8.20;4.93;;;;;17.60;101011.00;;;;10502237;28;20210;-76
2022/06/26 07:10:40;;;;;;;11.48;5.85;;;;;17.90;101041.00;;;;10495917;28;20238;-76
2022/06/26 07:15:43;;;;;;;11.00;6.15;;;;;18.30;101044.00;;;;10481756;28;20189;-76
2022/06/26 07:20:45;;;;;;;12.98;7.03;;;;;18.60;101031.00;;;;10499848;28;20598;-76
2022/06/26 07:25:48;;;;;;;12.25;7.10;;;;;18.70;101030.00;;;;10494051;28;20776;-76
2022/06/26 07:30:52;;;;;;;12.35;6.75;;;;;18.70;101044.00;;;;10464693;28;20204;-76
2022/06/26 07:35:54;;;;;;;11.55;7.22;;;;;18.90;101036.00;;;;10480929;28;20227;-76
2022/06/26 07:41:03;;;;;;;11.40;7.57;;;;;19.00;101058.00;;;;10521518;28;20205;-76
2022/06/26 07:46:05;;;;;;;13.63;7.47;;;;;19.20;101046.00;;;;10521623;28;20232;-76
2022/06/26 07:51:08;;;;;;;14.13;7.07;;;;;19.60;101037.00;;;;10510101;28;20242;-76
2022/06/26 07:56:10;;;;;;;11.48;7.10;;;;;20.00;101072.00;;;;10478676;28;20213;-75
2022/06/26 08:01:12;;;;;;;10.45;6.78;;;;;19.70;101057.00;;;;10541622;28;20201;-76
2022/06/26 08:06:19;;;;;;;13.30;7.18;;;;;19.90;101050.00;;;;10514800;28;20204;-76
2022/06/26 08:11:21;;;;;;;14.35;7.60;;;;;19.60;101062.00;;;;10555759;28;20220;-77
2022/06/26 08:16:23;;;;;;;14.82;8.00;;;;;20.30;101058.00;;;;10519363;28;20216;-76
2022/06/26 08:26:46;;;;;;;13.38;8.00;;;;;20.30;101069.00;;;;10477635;28;20567;-76
2022/06/26 08:31:48;;;;;;;14.45;9.02;;;;;20.60;101074.00;;;;10511322;28;20205;-76
2022/06/26 08:36:51;;;;;;;14.82;10.32;;;;;20.70;101084.00;;;;10522511;28;20193;-76
2022/06/26 08:41:53;;;;;;;13.88;10.05;;;;;21.10;101082.00;;;;10519571;28;20204;-76
2022/06/26 08:46:57;;;;;;;12.10;10.18;;;;;21.50;101080.00;;;;10510167;28;20212;-76
2022/06/26 08:51:59;;;;;;;13.48;9.02;;;;;21.50;101087.00;;;;10475079;28;20243;-76
2022/06/26 08:57:02;;;;;;;14.50;9.25;;;;;21.30;101093.00;;;;10475150;28;20232;-76
2022/06/26 09:02:05;;;;;;;12.38;6.53;;;;;21.60;101094.00;;;;10504572;28;20193;-77
2022/06/26 09:07:08;;;;;;;7.13;5.15;;;;;21.70;101090.00;;;;10461719;28;20232;-76
2022/06/26 09:12:10;;;;;;;7.70;4.22;;;;;21.60;101096.00;;;;10511183;28;20181;-76
2022/06/26 09:17:12;;;;;;;8.07;4.75;;;;;21.90;101101.00;;;;10529754;28;21458;-76
2022/06/26 09:22:22;;;;;;;4.78;3.53;;;;;22.70;101111.00;;;;10507540;28;20304;-76
2022/06/26 09:27:24;;;;;;;8.32;3.92;;;;;23.40;101104.00;;;;10534104;28;20204;-77
2022/06/26 09:32:30;;;;;;;6.72;3.03;;;;;24.30;101105.00;;;;10511367;28;20185;-76
2022/06/26 09:37:37;;;;;;;5.85;2.88;;;;;24.50;101106.00;;;;10506077;28;20288;-77
2022/06/26 09:42:58;;;;;;;6.72;3.40;;;;;24.80;101101.00;;;;10495655;28;20196;-76
2022/06/26 09:48:00;;;;;;;4.70;2.20;;;;;25.60;101103.00;;;;10507085;28;20598;-76
2022/06/26 09:53:05;;;;;;;5.60;2.65;;;;;25.10;101106.00;;;;10524988;28;20188;-77
2022/06/26 09:58:08;;;;;;;6.30;2.03;;;;;25.20;101105.00;;;;10513285;28;20293;-77
2022/06/26 10:08:31;;;;;;;3.72;2.25;;;;;24.90;101104.00;;;;10476679;28;20216;-76
2022/06/26 10:13:36;;;;;;;4.05;2.03;;;;;24.70;101109.00;;;;10510306;28;20238;-76
2022/06/26 10:19:09;;;;;;;3.45;2.10;;;;;25.10;101107.00;;;;10493436;28;20528;-76
2022/06/26 10:24:11;;;;;;;5.65;2.15;;;;;25.40;101109.00;;;;10509078;28;20679;-77
2022/06/26 10:29:13;;;;;;;5.05;2.50;;;;;25.30;101107.00;;;;10499375;28;20190;-77
2022/06/26 10:34:23;;;;;;;8.23;2.38;;;;;25.70;101095.00;;;;10488708;28;20284;-77
2022/06/26 10:39:41;;;;;;;4.38;2.22;;;;;26.00;101102.00;;;;10506141;28;20188;-76
2022/06/26 10:44:54;;;;;;;8.57;2.60;;;;;25.50;101099.00;;;;10481025;28;20299;-77
2022/06/26 10:49:56;;;;;;;6.40;2.15;;;;;25.60;101087.00;;;;10504873;28;20197;-77
2022/06/26 10:54:59;;;;;;;4.47;2.30;;;;;26.30;101073.00;;;;10522843;28;20185;-77
2022/06/26 11:00:08;;;;;;;3.67;1.60;;;;;26.90;101072.00;;;;10505537;28;20737;-77
2022/06/26 11:05:11;;;;;;;6.10;2.10;;;;;26.90;101072.00;;;;10480223;28;20732;-77
2022/06/26 11:10:20;;;;;;;6.07;2.38;;;;;28.70;101063.00;;;;10488131;28;20189;-77
2022/06/26 11:15:32;;;;;;;5.70;1.67;;;;;29.40;101071.00;;;;10522560;28;20185;-77
2022/06/26 11:20:54;;;;;;;3.58;1.90;;;;;29.70;101064.00;;;;10486579;28;20196;-78
2022/06/26 11:26:05;;;;;;;6.68;2.10;;;;;28.30;101074.00;;;;10521236;28;20693;-77
2022/06/26 11:31:09;;;;;;;5.03;2.38;;;;;27.90;101063.00;;;;10501774;28;20208;-77
2022/06/26 11:36:14;;;;;;;5.93;2.75;;;;;27.30;101076.00;;;;10481309;28;20554;-76
2022/06/26 11:41:17;;;;;;;7.97;2.83;;;;;26.30;101074.00;;;;10505210;28;20200;-78
2022/06/26 11:46:19;;;;;;;3.80;2.05;;;;;26.10;101058.00;;;;10457553;28;20223;-78
2022/06/26 11:51:22;;;;;;;6.75;3.05;;;;;25.80;101051.00;;;;10495792;28;20197;-77
2022/06/26 11:56:27;;;;;;;7.85;3.00;;;;;26.00;101049.00;;;;10492854;28;20180;-78
2022/06/26 12:01:34;;;;;;;4.57;2.42;;;;;26.30;101042.00;;;;10516066;28;20204;-78
2022/06/26 12:06:41;;;;;;;5.68;2.83;;;;;27.80;101022.00;;;;10517808;28;20774;-78
2022/06/26 12:11:44;;;;;;;4.15;2.13;;;;;28.70;101025.00;;;;10486345;28;20231;-78
2022/06/26 12:16:48;;;;;;;6.22;2.58;;;;;29.70;101044.00;;;;10487079;28;20282;-77
2022/06/26 12:21:52;;;;;;;4.25;2.08;;;;;30.00;101042.00;;;;10489590;28;20228;-78
2022/06/26 12:26:57;;;;;;;3.80;2.42;;;;;30.90;101036.00;;;;10536405;28;20238;-76
2022/06/26 12:32:00;;;;;;;5.03;2.03;;;;;31.70;101040.00;;;;10502429;28;20709;-76
2022/06/26 12:37:02;;;;;;;5.22;2.63;;;;;32.20;101056.00;;;;10469783;28;20275;-76
2022/06/26 12:42:05;;;;;;;5.47;1.80;;;;;30.00;101050.00;;;;10476252;28;20259;-77
2022/06/26 12:47:07;;;;;;;4.32;1.60;;;;;29.50;101055.00;;;;10511874;28;20224;-76
2022/06/26 12:52:10;;;;;;;5.32;1.50;;;;;28.60;101058.00;;;;10523672;28;20249;-76
2022/06/26 12:57:12;;;;;;;6.25;1.80;;;;;27.70;101054.00;;;;10527624;28;20579;-78
2022/06/26 13:02:14;;;;;;;4.70;1.80;;;;;27.20;101053.00;;;;10477464;28;20201;-78
2022/06/26 13:07:16;;;;;;;6.10;2.10;;;;;27.00;101035.00;;;;10483273;28;20283;-77
2022/06/26 13:12:18;;;;;;;4.70;2.13;;;;;27.50;101036.00;;;;10490827;28;20184;-78
2022/06/26 13:17:20;;;;;;;4.15;1.50;;;;;27.60;101038.00;;;;10497975;28;20189;-77
2022/06/26 13:22:22;;;;;;;5.28;1.77;;;;;27.40;101043.00;;;;10475874;28;20205;-78
2022/06/26 13:27:25;;;;;;;6.07;1.90;;;;;27.20;101044.00;;;;10460235;28;20209;-78
2022/06/26 13:32:27;;;;;;;5.60;1.98;;;;;28.00;101044.00;;;;10492475;28;20192;-77
2022/06/26 13:37:29;;;;;;;5.22;2.22;;;;;28.20;101048.00;;;;10511993;28;20599;-78
2022/06/26 13:42:31;;;;;;;5.95;2.08;;;;;27.70;101057.00;;;;10551021;28;20200;-78
2022/06/26 13:47:33;;;;;;;7.18;2.45;;;;;27.60;101059.00;;;;10532775;28;20204;-78
2022/06/26 13:52:35;;;;;;;5.20;2.10;;;;;27.10;101062.00;;;;10531709;28;20246;-78
2022/06/26 13:57:38;;;;;;;4.82;2.15;;;;;26.80;101040.00;;;;10549118;28;20213;-78
2022/06/26 14:02:44;;;;;;;5.88;2.10;;;;;26.70;101041.00;;;;10526504;28;20192;-78
2022/06/26 14:07:46;;;;;;;5.65;1.65;;;;;26.60;101038.00;;;;10526252;28;20204;-78
2022/06/26 14:12:49;;;;;;;4.97;2.35;;;;;26.80;101036.00;;;;10475808;28;20698;-78
2022/06/26 14:17:51;;;;;;;4.38;2.15;;;;;27.00;101026.00;;;;10533411;28;20181;-78
2022/06/26 14:28:15;;;;;;;2.78;1.60;;;;;26.40;101024.00;;;;10483443;28;20251;-78
2022/06/26 14:33:18;;;;;;;3.58;1.80;;;;;25.90;101020.00;;;;10520359;28;20192;-78
2022/06/26 14:38:27;;;;;;;4.68;2.22;;;;;25.70;101022.00;;;;10519644;28;20275;-78
2022/06/26 14:43:35;;;;;;;2.63;1.58;;;;;25.50;101026.00;;;;10530507;28;20193;-78
2022/06/26 14:48:38;;;;;;;5.95;1.98;;;;;25.70;101016.00;;;;10532804;28;20192;-78
2022/06/26 14:53:40;;;;;;;5.10;1.40;;;;;25.70;101008.00;;;;10502718;28;20196;-78
2022/06/26 14:58:42;;;;;;;7.32;1.95;;;;;26.00;101007.00;;;;10506008;28;20205;-78
2022/06/26 15:03:45;;;;;;;5.68;1.50;;;;;25.40;100997.00;;;;10506228;28;20201;-78
2022/06/26 15:08:48;;;;;;;2.58;1.60;;;;;25.30;101004.00;;;;10535977;28;20604;-78
2022/06/26 15:13:50;;;;;;;4.00;2.38;;;;;25.80;100989.00;;;;10498307;28;20200;-78
2022/06/26 15:18:52;;;;;;;3.75;1.88;;;;;28.10;101002.00;;;;10511140;28;20188;-78
2022/06/26 15:23:59;;;;;;;4.63;2.22;;;;;27.30;100996.00;;;;10512656;28;20217;-78
2022/06/26 15:29:01;;;;;;;8.25;2.42;;;;;34.40;100996.00;;;;10508646;28;21021;-78
2022/06/26 15:34:03;;;;;;;4.97;2.35;;;;;34.60;100994.00;;;;10483836;28;20181;-78
2022/06/26 15:39:05;;;;;;;4.43;2.47;;;;;31.50;101002.00;;;;10544592;28;20193;-78
2022/06/26 15:44:08;;;;;;;6.65;2.20;;;;;28.30;100998.00;;;;10538590;28;20211;-78
2022/06/26 15:49:10;;;;;;;4.53;2.13;;;;;26.80;100990.00;;;;10477861;28;20201;-77
2022/06/26 15:54:15;;;;;;;6.05;2.40;;;;;26.00;100974.00;;;;10468566;28;20224;-77
2022/06/26 15:59:17;;;;;;;4.90;2.10;;;;;25.20;100983.00;;;;10495594;28;20227;-77
2022/06/26 16:04:19;;;;;;;3.08;1.98;;;;;24.50;100977.00;;;;10466342;28;20205;-77
2022/06/26 16:09:21;;;;;;;4.38;2.00;;;;;23.80;100983.00;;;;10483667;28;20537;-77
2022/06/26 16:14:23;;;;;;;8.85;2.72;;;;;23.50;100980.00;;;;10460606;28;20193;-78
2022/06/26 16:19:25;;;;;;;6.22;2.35;;;;;23.60;100980.00;;;;10462009;28;20189;-77
2022/06/26 16:29:48;;;;;;;5.15;2.28;;;;;23.70;100972.00;;;;10502754;28;20192;-77
2022/06/26 16:34:50;;;;;;;4.68;2.17;;;;;23.90;100963.00;;;;10538706;28;20315;-78
2022/06/26 16:39:52;;;;;;;4.88;2.28;;;;;24.40;100949.00;;;;10555773;28;20681;-77
2022/06/26 16:44:54;;;;;;;6.57;2.22;;;;;24.90;100959.00;;;;10508511;28;20671;-77
2022/06/26 16:49:56;;;;;;;4.05;1.98;;;;;25.20;100952.00;;;;10485799;28;20193;-77
2022/06/26 16:54:59;;;;;;;3.63;1.80;;;;;24.80;100965.00;;;;10537778;28;20187;-77
2022/06/26 17:00:06;;;;;;;5.68;1.75;;;;;24.90;100953.00;;;;10512131;28;20220;-77
2022/06/26 17:05:08;;;;;;;5.85;1.90;;;;;24.50;100952.00;;;;10473384;28;20217;-77
2022/06/26 17:10:11;;;;;;;4.25;1.77;;;;;23.90;100958.00;;;;10513157;28;20239;-77
2022/06/26 17:15:13;;;;;;;7.32;1.80;;;;;23.80;100957.00;;;;10439857;28;20200;-77
2022/06/26 17:20:15;;;;;;;4.43;1.70;;;;;24.30;100966.00;;;;10484348;28;20192;-77
2022/06/26 17:25:18;;;;;;;5.07;2.03;;;;;24.20;100978.00;;;;10484151;28;20220;-77
2022/06/26 17:30:21;;;;;;;6.28;2.00;;;;;23.30;100964.00;;;;10486198;28;20193;-77
2022/06/26 17:35:23;;;;;;;4.43;1.80;;;;;22.60;100972.00;;;;10526450;28;20647;-77
2022/06/26 17:40:25;;;;;;;6.80;3.28;;;;;22.30;100961.00;;;;10499122;28;20201;-77
2022/06/26 17:45:27;;;;;;;6.07;2.53;;;;;22.10;100959.00;;;;10459842;28;20267;-77
2022/06/26 17:50:30;;;;;;;6.00;2.03;;;;;22.00;100963.00;;;;10524982;28;20196;-77
2022/06/26 17:55:33;;;;;;;3.97;2.13;;;;;21.90;100975.00;;;;10540092;28;20196;-77
2022/06/26 18:00:36;;;;;;;8.35;2.13;;;;;22.00;100985.00;;;;10514143;28;20271;-77
2022/06/26 18:05:38;;;;;;;4.72;2.72;;;;;21.90;100984.00;;;;10481512;28;20262;-77
2022/06/26 18:10:40;;;;;;;4.57;1.92;;;;;21.80;100995.00;;;;10499481;28;20193;-77
2022/06/26 18:15:42;;;;;;;5.70;2.22;;;;;21.70;100984.00;;;;10483499;28;20246;-77
2022/06/26 18:20:44;;;;;;;5.45;1.90;;;;;21.50;100988.00;;;;10504836;28;20189;-77
2022/06/26 18:25:48;;;;;;;3.88;1.92;;;;;21.30;100995.00;;;;10508908;28;20218;-77
2022/06/26 18:30:51;;;;;;;6.85;2.42;;;;;21.50;100979.00;;;;10508410;28;20694;-78
2022/06/26 18:35:53;;;;;;;7.85;2.20;;;;;21.80;100962.00;;;;10520986;28;20189;-77
2022/06/26 18:40:55;;;;;;;4.88;1.95;;;;;21.70;100975.00;;;;10489940;28;20246;-77
2022/06/26 18:45:59;;;;;;;4.22;1.75;;;;;21.30;100966.00;;;;10463706;28;20221;-77
2022/06/26 18:51:01;;;;;;;5.07;2.13;;;;;20.90;100963.00;;;;10500474;28;20194;-77
2022/06/26 18:56:03;;;;;;;3.28;1.90;;;;;20.60;100967.00;;;;10485935;28;20193;-77
2022/06/26 19:01:05;;;;;;;8.27;2.90;;;;;20.40;100977.00;;;;10488185;28;20243;-77
2022/06/26 19:06:08;;;;;;;6.13;2.10;;;;;20.30;100982.00;;;;10507098;28;20208;-77
2022/06/26 19:16:50;;;;;;;4.53;2.08;;;;;19.90;100970.00;;;;10482832;28;20186;-77
2022/06/26 19:21:52;;;;;;;3.75;2.30;;;;;19.80;100984.00;;;;10465966;28;20210;-77
2022/06/26 19:26:54;;;;;;;4.60;1.90;;;;;19.60;100980.00;;;;10448400;28;20209;-77
2022/06/26 19:31:58;;;;;;;5.63;2.20;;;;;19.50;100981.00;;;;10476846;28;20747;-77
2022/06/26 19:37:00;;;;;;;6.85;2.17;;;;;19.40;100962.00;;;;10507336;28;20185;-77
2022/06/26 19:47:25;;;;;;;4.40;2.25;;;;;19.10;100983.00;;;;10522951;28;20236;-76
2022/06/26 19:52:27;;;;;;;4.05;2.38;;;;;19.00;100991.00;;;;10473970;28;20193;-77
2022/06/26 19:57:29;;;;;;;5.90;2.28;;;;;18.90;100989.00;;;;10506259;28;20208;-76
2022/06/26 20:02:31;;;;;;;5.07;2.17;;;;;18.90;100993.00;;;;10505910;28;20216;-77
2022/06/26 20:07:41;;;;;;;6.55;2.50;;;;;18.90;100979.00;;;;10489734;28;20201;-77
2022/06/26 20:12:42;;;;;;;4.25;2.40;;;;;18.80;100995.00;;;;10505446;28;20201;-77
2022/06/26 20:17:45;;;;;;;5.80;2.28;;;;;18.70;101022.00;;;;10544510;28;20271;-77
2022/06/26 20:22:47;;;;;;;4.93;2.17;;;;;18.70;101029.00;;;;10479437;28;20300;-77
2022/06/26 20:27:49;;;;;;;5.10;2.40;;;;;18.70;101032.00;;;;10462983;28;20680;-76
2022/06/26 20:32:51;;;;;;;7.97;3.08;;;;;18.70;101034.00;;;;10481204;28;20318;-77
2022/06/26 20:37:54;;;;;;;9.70;2.92;;;;;18.70;101021.00;;;;10520938;28;20189;-76
2022/06/26 20:42:57;;;;;;;7.50;2.75;;;;;18.60;101009.00;;;;10522065;28;20184;-77
2022/06/26 20:47:59;;;;;;;3.72;2.15;;;;;18.50;101024.00;;;;10511204;28;20196;-76
2022/06/26 20:53:01;;;;;;;4.10;2.45;;;;;18.30;101033.00;;;;10499459;28;20192;-76
2022/06/26 20:58:03;;;;;;;4.18;2.38;;;;;18.20;101041.00;;;;10526145;28;20211;-77
2022/06/26 21:03:07;;;;;;;4.93;2.60;;;;;18.10;101041.00;;;;10487360;28;20204;-77
2022/06/26 21:08:11;;;;;;;6.63;3.00;;;;;18.10;101036.00;;;;10503056;28;20251;-76
2022/06/26 21:13:14;;;;;;;7.32;2.63;;;;;18.10;101012.00;;;;10486695;28;20235;-76
2022/06/26 21:18:16;;;;;;;4.72;2.58;;;;;18.00;101001.00;;;;10549312;28;20180;-76
2022/06/26 21:23:18;;;;;;;3.67;2.55;;;;;17.80;101001.00;;;;10484260;28;20204;-76
2022/06/26 21:28:20;;;;;;;4.05;2.75;;;;;17.70;101003.00;;;;10477113;28;20344;-76
2022/06/26 21:33:23;;;;;;;7.28;3.25;;;;;17.70;101000.00;;;;10500443;28;20275;-76
2022/06/26 21:38:25;;;;;;;6.20;3.20;;;;;17.60;101001.00;;;;10556375;28;20188;-76
2022/06/26 21:43:28;;;;;;;5.40;3.58;;;;;17.60;100994.00;;;;10521048;28;20238;-77
2022/06/26 21:48:30;;;;;;;5.95;3.38;;;;;17.50;100991.00;;;;10510947;28;20204;-76
2022/06/26 21:53:33;;;;;;;3.67;3.03;;;;;17.50;100988.00;;;;10504558;28;20250;-76
2022/06/26 21:58:35;;;;;;;9.68;3.53;;;;;17.50;100987.00;;;;10474368;28;20224;-76
2022/06/26 22:03:37;;;;;;;4.50;2.97;;;;;17.50;100989.00;;;;10510067;28;20189;-76
2022/06/26 22:08:39;;;;;;;6.15;2.88;;;;;17.60;100985.00;;;;10511334;28;20327;-76
2022/06/26 22:13:41;;;;;;;3.65;2.78;;;;;17.60;100985.00;;;;10523323;28;20559;-76
2022/06/26 22:18:43;;;;;;;11.48;3.50;;;;;17.60;100982.00;;;;10514434;28;20201;-77
2022/06/26 22:23:44;;;;;;;5.60;3.70;;;;;17.50;101003.00;;;;10516637;28;20254;-77
2022/06/26 22:28:46;;;;;;;6.70;4.97;;;;;17.50;100992.00;;;;10549490;28;20196;-77
2022/06/26 22:33:48;;;;;;;6.97;4.28;;;;;17.60;101010.00;;;;10525293;28;20228;-77
2022/06/26 22:38:50;;;;;;;9.93;3.45;;;;;17.60;101006.00;;;;10498807;28;20216;-77
2022/06/26 22:43:52;;;;;;;3.95;3.08;;;;;17.60;101009.00;;;;10468147;28;20277;-77
2022/06/26 22:48:54;;;;;;;8.38;3.38;;;;;17.50;101009.00;;;;10468356;28;20263;-77
2022/06/26 22:53:56;;;;;;;4.70;3.35;;;;;17.50;101010.00;;;;10450873;28;20193;-77
2022/06/26 22:58:58;;;;;;;4.53;2.63;;;;;17.50;101011.00;;;;10467352;28;20211;-77
2022/06/26 23:04:00;;;;;;;5.80;2.92;;;;;17.50;101012.00;;;;10492518;28;20280;-77
2022/06/26 23:09:02;;;;;;;6.75;3.50;;;;;17.40;101004.00;;;;10492515;28;20205;-77
2022/06/26 23:14:04;;;;;;;5.78;3.88;;;;;17.40;101007.00;;;;10508608;28;20201;-77
2022/06/26 23:19:07;;;;;;;5.10;3.25;;;;;17.40;101003.00;;;;10508407;28;20207;-77
2022/06/26 23:24:09;;;;;;;9.35;3.80;;;;;17.40;101012.00;;;;10489791;28;20667;-77
2022/06/26 23:29:11;;;;;;;5.78;3.20;;;;;17.40;101011.00;;;;10465983;28;20323;-77
2022/06/26 23:34:13;;;;;;;4.50;3.55;;;;;17.40;101014.00;;;;10546927;28;20266;-77
2022/06/26 23:39:15;;;;;;;4.72;3.17;;;;;17.40;101002.00;;;;10549352;28;20647;-77
2022/06/26 23:44:17;;;;;;;6.10;3.15;;;;;17.40;101019.00;;;;10472785;28;20616;-77
2022/06/26 23:49:19;;;;;;;6.13;3.47;;;;;17.40;101031.00;;;;10465128;28;20619;-77
2022/06/26 23:54:21;;;;;;;7.93;3.38;;;;;17.40;101038.00;;;;10498184;28;20268;-77
2022/06/26 23:59:23;;;;;;;5.10;3.30;;;;;17.40;101035.00;;;;10498221;28;20205;-77
